Time;durP1;ratioP1;P1;durP2;ratioP2;P2;SDS_P1;SDS_P2;PMS_P1;PMS_P2;Temp;Humidity;BMP_temperature;BMP_pressure;BME280_temperature;BME280_humidity;BME280_pressure;Samples;Min_cycle;Max_cycle;Signal;HPM_P1;HPM_P2
2021/11/17 02:26:32;;;;;;;;;;;;;;;;;;;;;
2021/11/17 02:30:05;;;;;;;27.30;11.20;;;;;;;4.03;99.99;101196.80;101717;1323;71412;-78
2021/11/17 02:33:23;;;;;;;19.20;8.50;;;;;;;4.05;100.00;101195.23;102507;1322;74350;-79
2021/11/17 02:36:56;;;;;;;19.90;7.30;;;;;;;4.05;99.77;101187.59;102634;1318;63238;-80
2021/11/17 02:40:26;;;;;;;17.40;8.10;;;;;;;4.02;99.08;101188.10;102790;1320;61404;-78
2021/11/17 02:44:13;;;;;;;19.50;8.80;;;;;;;4.02;99.02;101183.43;102249;1320;75159;-79
2021/11/17 02:47:46;;;;;;;19.80;8.00;;;;;;;4.03;98.65;101181.58;101749;1330;70489;-79
2021/11/17 02:51:17;;;;;;;18.50;7.40;;;;;;;4.05;98.40;101177.79;101570;1326;73990;-78
2021/11/17 02:54:33;;;;;;;13.30;6.90;;;;;;;4.06;97.88;101176.27;102649;1318;62021;-81
2021/11/17 02:58:02;;;;;;;10.50;4.80;;;;;;;4.06;97.41;101169.95;102524;1319;62065;-78
2021/11/17 03:01:12;;;;;;;12.60;6.60;;;;;;;4.07;97.34;101172.84;102314;1318;74989;-78
2021/11/17 03:03:57;;;;;;;18.30;8.60;;;;;;;4.07;97.20;101170.76;102302;1318;72538;-77
2021/11/17 03:07:29;;;;;;;;;;;;;;;;;;;;;
2021/11/17 03:10:53;;;;;;;16.00;7.70;;;;;;;4.06;97.41;101166.27;101877;1319;62401;-79
2021/11/17 03:14:02;;;;;;;20.20;7.80;;;;;;;4.06;97.06;101167.89;102446;1318;61283;-77
2021/11/17 03:17:47;;;;;;;18.70;7.90;;;;;;;4.04;96.30;101162.80;102472;1318;76230;-80
2021/11/17 03:21:15;;;;;;;12.70;6.10;;;;;;;4.05;96.66;101159.02;101680;1327;72627;-78
2021/11/17 03:25:01;;;;;;;18.50;7.80;;;;;;;4.06;95.60;101159.64;101902;1324;72989;-79
2021/11/17 03:28:34;;;;;;;16.40;8.10;;;;;;;4.06;95.27;101151.97;101853;1327;62355;-80
2021/11/17 03:31:58;;;;;;;;;;;;;;;;;;;;;
2021/11/17 03:34:34;;;;;;;14.50;6.30;;;;;;;4.08;94.97;101155.48;102199;1318;75039;-78
2021/11/17 03:37:48;;;;;;;7.40;3.20;;;;;;;4.06;94.75;101153.37;102254;1318;71543;-81
2021/11/17 03:40:43;;;;;;;15.40;5.80;;;;;;;4.04;94.01;101157.54;102265;1318;72185;-79
2021/11/17 03:44:07;;;;;;;;;;;;;;;;;;;;;
2021/11/17 03:47:26;;;;;;;;;;;;;;;;;;;;;
2021/11/17 03:50:36;;;;;;;17.60;5.90;;;;;;;4.01;93.26;101156.17;102218;1318;75207;-77
2021/11/17 03:53:29;;;;;;;10.20;4.80;;;;;;;3.98;92.88;101156.91;102350;1318;71607;-77
2021/11/17 03:56:37;;;;;;;;;;;;;;;;;;;;;
2021/11/17 04:00:05;;;;;;;12.00;5.90;;;;;;;3.98;93.77;101157.83;102500;1318;62515;-78
2021/11/17 04:03:17;;;;;;;14.70;6.60;;;;;;;3.97;93.68;101166.69;102081;1322;61321;-80
2021/11/17 04:06:27;;;;;;;;;;;;;;;;;;;;;
2021/11/17 04:09:29;;;;;;;12.50;5.90;;;;;;;3.92;94.04;101166.73;102393;1318;71612;-77
2021/11/17 04:13:03;;;;;;;12.30;5.50;;;;;;;3.89;94.11;101161.73;102227;1319;74096;-79
2021/11/17 04:15:48;;;;;;;14.10;6.10;;;;;;;3.87;94.19;101164.26;102816;1318;62692;-78
2021/11/17 04:19:29;;;;;;;13.80;6.70;;;;;;;3.86;94.60;101163.64;102161;1320;61212;-78
2021/11/17 04:22:46;;;;;;;;;;;;;;;;;;;;;
2021/11/17 04:25:39;;;;;;;16.60;6.70;;;;;;;3.83;94.96;101171.59;102549;1318;71463;-77
2021/11/17 04:29:32;;;;;;;11.80;5.00;;;;;;;3.83;95.28;101174.45;102440;1319;74051;-79
2021/11/17 04:33:14;;;;;;;15.90;6.60;;;;;;;3.80;95.34;101171.34;102394;1322;61917;-79
2021/11/17 04:36:21;;;;;;;11.10;4.70;;;;;;;3.78;95.74;101167.45;102331;1318;61529;-78
2021/11/17 04:39:35;;;;;;;12.80;5.50;;;;;;;3.76;95.89;101167.48;101866;1324;75194;-78
2021/11/17 04:42:28;;;;;;;;;;;;;;;;;;;;;
2021/11/17 04:45:40;;;;;;;15.40;6.00;;;;;;;3.72;96.29;101163.52;101824;1324;74422;-79
2021/11/17 04:49:09;;;;;;;;;;;;;;;;;;;;;
2021/11/17 04:52:24;;;;;;;11.40;4.60;;;;;;;3.63;95.96;101165.79;102595;1319;61313;-78
2021/11/17 04:55:48;;;;;;;;;;;;;;;;;;;;;
2021/11/17 04:58:56;;;;;;;14.10;5.80;;;;;;;3.58;96.43;101170.23;102246;1325;71548;-77
2021/11/17 05:01:46;;;;;;;13.70;5.90;;;;;;;3.56;96.50;101168.27;102280;1319;73901;-81
2021/11/17 05:04:55;;;;;;;13.20;4.00;;;;;;;3.57;96.71;101171.86;102624;1318;60559;-80
2021/11/17 05:08:28;;;;;;;11.90;5.60;;;;;;;3.55;96.52;101181.64;102465;1318;61596;-77
2021/11/17 05:11:59;;;;;;;15.10;5.70;;;;;;;3.53;96.70;101189.29;102276;1318;76153;-79
2021/11/17 05:15:10;;;;;;;;;;;;;;;;;;;;;
2021/11/17 05:18:19;;;;;;;10.90;4.60;;;;;;;3.54;96.84;101186.23;103098;1318;73189;-81
2021/11/17 05:21:15;;;;;;;17.30;6.30;;;;;;;3.56;96.95;101186.30;102328;1319;61933;-79
2021/11/17 05:24:39;;;;;;;17.60;6.30;;;;;;;3.55;97.03;101179.73;102224;1318;60406;-79
2021/11/17 05:28:07;;;;;;;10.70;4.70;;;;;;;3.55;96.94;101176.77;103079;1318;74949;-81
2021/11/17 05:31:15;;;;;;;15.40;6.40;;;;;;;3.57;97.04;101170.64;102189;1322;72538;-78
2021/11/17 05:34:21;;;;;;;12.70;5.40;;;;;;;3.60;97.05;101165.48;102580;1318;72550;-79
2021/11/17 05:37:12;;;;;;;15.10;5.70;;;;;;;3.63;97.01;101165.14;102550;1317;62376;-77
2021/11/17 05:40:28;;;;;;;23.40;7.00;;;;;;;3.64;96.88;101165.67;102242;1318;61486;-78
2021/11/17 05:43:31;;;;;;;18.80;6.50;;;;;;;3.65;96.53;101160.52;102168;1319;73880;-79
2021/11/17 05:46:44;;;;;;;17.00;6.60;;;;;;;3.67;96.78;101162.67;102378;1318;71442;-77
2021/11/17 05:50:08;;;;;;;;;;;;;;;;;;;;;
2021/11/17 05:53:10;;;;;;;25.80;8.70;;;;;;;3.71;96.41;101159.46;102397;1319;62708;-78
2021/11/17 05:55:58;;;;;;;35.90;12.50;;;;;;;3.72;96.30;101157.23;102284;1318;61331;-78
2021/11/17 05:59:22;;;;;;;;;;;;;;;;;;;;;
2021/11/17 06:02:11;;;;;;;15.00;7.10;;;;;;;3.77;96.67;101164.95;102402;1318;72624;-81
2021/11/17 06:04:48;;;;;;;;;;;;;;;;;;;;;
2021/11/17 06:07:27;;;;;;;10.80;5.50;;;;;;;3.79;96.92;101166.70;102459;1318;61202;-80
2021/11/17 06:10:07;;;;;;;14.90;6.00;;;;;;;3.80;97.09;101162.94;102339;1318;61281;-78
2021/11/17 06:12:42;;;;;;;13.80;5.80;;;;;;;3.80;97.07;101162.89;102738;1320;74881;-79
2021/11/17 06:15:14;;;;;;;14.10;6.70;;;;;;;3.81;96.51;101168.61;102491;1323;72392;-77
2021/11/17 06:17:48;;;;;;;17.90;7.30;;;;;;;3.81;96.77;101171.42;102456;1320;72912;-76
2021/11/17 06:20:42;;;;;;;17.00;6.10;;;;;;;3.82;96.63;101164.69;102190;1319;61425;-81
2021/11/17 06:23:19;;;;;;;17.60;6.60;;;;;;;3.84;96.11;101165.41;102109;1325;61047;-77
2021/11/17 06:25:49;;;;;;;15.70;6.00;;;;;;;3.83;96.14;101167.39;101601;1320;74410;-78
2021/11/17 06:28:33;;;;;;;12.40;5.50;;;;;;;3.85;95.85;101169.02;102289;1318;72667;-79
2021/11/17 06:31:01;;;;;;;15.70;5.90;;;;;;;3.84;95.67;101163.27;102335;1318;72493;-77
2021/11/17 06:33:40;;;;;;;;;;;;;;;;;;;;;
2021/11/17 06:36:10;;;;;;;37.70;16.50;;;;;;;3.89;96.09;101172.23;102247;1323;61363;-78
2021/11/17 06:39:27;;;;;;;;;;;;;;;;;;;;;
2021/11/17 06:41:54;;;;;;;26.70;9.80;;;;;;;4.08;96.04;101189.05;102374;1320;70317;-78
2021/11/17 06:44:23;;;;;;;35.00;13.50;;;;;;;4.13;95.97;101187.79;102750;1319;73904;-77
2021/11/17 06:46:58;;;;;;;18.80;8.90;;;;;;;4.19;95.55;101190.49;102449;1324;61416;-79
2021/11/17 06:49:28;;;;;;;17.40;8.60;;;;;;;4.24;95.63;101193.27;102342;1324;61304;-79
2021/11/17 06:51:56;;;;;;;54.70;21.80;;;;;;;4.29;95.57;101194.05;102640;1319;74918;-77
2021/11/17 06:54:32;;;;;;;20.30;9.10;;;;;;;4.34;95.17;101194.57;102545;1318;72828;-79
2021/11/17 06:57:00;;;;;;;28.90;11.70;;;;;;;4.37;95.25;101199.75;102262;1320;71712;-77
2021/11/17 06:59:41;;;;;;;;;;;;;;;;;;;;;
2021/11/17 07:02:45;;;;;;;;;;;;;;;;;;;;;
2021/11/17 07:05:14;;;;;;;57.10;24.50;;;;;;;4.40;95.55;101210.73;102371;1318;75463;-77
2021/11/17 07:07:56;;;;;;;;;;;;;;;;;;;;;
2021/11/17 07:10:26;;;;;;;45.60;16.70;;;;;;;4.39;96.37;101200.11;102118;1320;73026;-76
2021/11/17 07:13:16;;;;;;;48.50;18.50;;;;;;;4.40;96.42;101196.66;102214;1319;61518;-78
2021/11/17 07:15:43;;;;;;;28.70;9.70;;;;;;;4.40;96.79;101194.08;102285;1321;61317;-77
2021/11/17 07:18:40;;;;;;;20.30;9.00;;;;;;;4.39;96.82;101186.10;102203;1326;74919;-77
2021/11/17 07:21:09;;;;;;;28.10;11.00;;;;;;;4.36;97.20;101181.30;102488;1324;72464;-77
2021/11/17 07:23:38;;;;;;;19.50;8.90;;;;;;;4.37;97.55;101185.75;102324;1320;74287;-78
2021/11/17 07:26:13;;;;;;;24.10;10.40;;;;;;;4.38;97.33;101183.70;102438;1319;62305;-77
2021/11/17 07:29:00;;;;;;;17.40;7.40;;;;;;;4.42;97.97;101188.35;102218;1324;61397;-78
2021/11/17 07:31:49;;;;;;;25.20;11.60;;;;;;;4.44;97.27;101188.30;102516;1324;76127;-77
2021/11/17 07:34:19;;;;;;;45.00;22.70;;;;;;;4.43;96.80;101189.61;102584;1324;71459;-81
2021/11/17 07:36:49;;;;;;;32.70;13.30;;;;;;;4.44;97.29;101185.50;102366;1323;72887;-78
2021/11/17 07:40:06;;;;;;;40.60;16.50;;;;;;;4.47;97.03;101184.25;102352;1319;61591;-78
2021/11/17 07:42:32;;;;;;;18.00;8.00;;;;;;;4.54;96.98;101184.57;102303;1321;61191;-79
2021/11/17 07:46:00;;;;;;;25.60;11.90;;;;;;;4.60;97.12;101178.50;102425;1319;75898;-79
2021/11/17 07:48:35;;;;;;;19.40;8.50;;;;;;;4.69;96.78;101164.98;102143;1324;72447;-80
2021/11/17 07:51:05;;;;;;;21.90;9.50;;;;;;;4.76;96.47;101160.20;102713;1324;72932;-78
2021/11/17 07:53:33;;;;;;;28.40;12.50;;;;;;;4.80;96.04;101149.52;102441;1320;63371;-79
2021/11/17 07:56:04;;;;;;;71.60;32.30;;;;;;;4.82;95.39;101142.46;102326;1325;61378;-78
2021/11/17 07:58:56;;;;;;;21.20;7.80;;;;;;;4.85;95.33;101143.30;102239;1320;75447;-78
2021/11/17 08:01:24;;;;;;;18.10;7.60;;;;;;;4.85;95.15;101144.73;102497;1320;72723;-78
2021/11/17 08:04:14;;;;;;;18.00;7.80;;;;;;;4.82;94.64;101145.81;102607;1319;72980;-77
2021/11/17 08:06:47;;;;;;;32.30;13.10;;;;;;;4.79;94.47;101143.44;102369;1325;62828;-74
2021/11/17 08:09:17;;;;;;;17.50;7.40;;;;;;;4.75;95.00;101124.51;102592;1320;61462;-78
2021/11/17 08:12:06;;;;;;;15.60;6.70;;;;;;;4.67;94.64;101130.23;102465;1320;75218;-81
2021/11/17 08:14:35;;;;;;;17.50;7.70;;;;;;;4.57;94.58;101128.80;102422;1320;72560;-78
2021/11/17 08:17:42;;;;;;;15.10;7.10;;;;;;;4.51;95.16;101128.41;102604;1317;73138;-80
2021/11/17 08:20:29;;;;;;;;;;;;;;;;;;;;;
2021/11/17 08:23:19;;;;;;;15.50;6.30;;;;;;;4.46;95.47;101136.83;102350;1320;62660;-77
2021/11/17 08:25:48;;;;;;;14.20;6.00;;;;;;;4.47;95.54;101149.53;102436;1322;75006;-78
2021/11/17 08:28:39;;;;;;;;;;;;;;;;;;;;;
2021/11/17 08:31:09;;;;;;;13.80;5.40;;;;;;;4.54;95.55;101149.56;102289;1320;72934;-78
2021/11/17 08:34:43;;;;;;;13.80;5.60;;;;;;;4.58;95.59;101153.63;102567;1318;63349;-80
2021/11/17 08:37:09;;;;;;;7.50;3.70;;;;;;;4.63;95.39;101160.01;102193;1319;61281;-77
2021/11/17 08:39:56;;;;;;;22.20;9.60;;;;;;;4.69;95.51;101161.96;102997;1322;75997;-80
2021/11/17 08:43:05;;;;;;;16.60;6.70;;;;;;;4.76;94.87;101162.63;102617;1319;71435;-77
2021/11/17 08:45:31;;;;;;;16.00;6.20;;;;;;;4.84;94.78;101170.59;102439;1320;73007;-78
2021/11/17 08:48:00;;;;;;;18.70;6.90;;;;;;;5.00;94.96;101176.08;102450;1319;62428;-76
2021/11/17 08:50:35;;;;;;;24.40;9.50;;;;;;;5.10;93.98;101174.00;102516;1318;61463;-80
2021/11/17 08:53:06;;;;;;;29.60;11.40;;;;;;;5.17;93.84;101182.05;102829;1318;75016;-79
2021/11/17 08:55:56;;;;;;;78.20;26.80;;;;;;;5.19;92.94;101180.32;102414;1318;71524;-80
2021/11/17 08:59:06;;;;;;;82.70;29.50;;;;;;;5.22;92.96;101169.19;102539;1320;73957;-78
2021/11/17 09:02:27;;;;;;;18.10;7.50;;;;;;;5.28;92.86;101155.81;102626;1318;62265;-80
2021/11/17 09:05:06;;;;;;;11.10;5.80;;;;;;;5.41;92.42;101153.95;102806;1315;61436;-77
2021/11/17 09:07:33;;;;;;;13.20;5.40;;;;;;;5.54;91.60;101153.69;102453;1319;75971;-77
2021/11/17 09:10:21;;;;;;;10.60;5.30;;;;;;;5.68;91.26;101157.40;102576;1317;71440;-80
2021/11/17 09:12:53;;;;;;;11.10;5.40;;;;;;;5.85;90.66;101160.13;102420;1318;74128;-77
2021/11/17 09:15:44;;;;;;;11.30;5.40;;;;;;;5.98;90.11;101160.80;102270;1321;61975;-77
2021/11/17 09:18:52;;;;;;;12.40;6.70;;;;;;;6.00;89.24;101152.03;102419;1318;61305;-77
2021/11/17 09:21:33;;;;;;;11.50;6.10;;;;;;;5.97;89.22;101165.80;102532;1317;76007;-78
2021/11/17 09:24:06;;;;;;;43.70;18.10;;;;;;;5.99;89.63;101172.81;102604;1325;72642;-78
2021/11/17 09:27:13;;;;;;;41.20;16.70;;;;;;;5.99;89.27;101182.85;102565;1318;74027;-80
2021/11/17 09:30:13;;;;;;;21.80;9.20;;;;;;;6.00;89.50;101189.75;102360;1318;62406;-78
2021/11/17 09:33:05;;;;;;;40.10;16.40;;;;;;;5.98;89.43;101193.66;102419;1318;61462;-76
2021/11/17 09:36:16;;;;;;;45.10;18.90;;;;;;;5.93;89.17;101201.27;102370;1322;75049;-77
2021/11/17 09:39:06;;;;;;;48.30;18.60;;;;;;;5.87;89.36;101205.08;102540;1318;72766;-78
2021/11/17 09:41:54;;;;;;;37.50;15.50;;;;;;;5.82;89.58;101206.52;102574;1318;74276;-78
2021/11/17 09:44:32;;;;;;;45.90;21.30;;;;;;;5.82;90.07;101201.67;102306;1320;61290;-78
2021/11/17 09:47:16;;;;;;;77.10;33.00;;;;;;;5.80;90.18;101200.23;102476;1319;61319;-76
2021/11/17 09:50:18;;;;;;;60.90;26.10;;;;;;;5.83;90.40;101199.16;102429;1318;76191;-77
2021/11/17 09:53:19;;;;;;;;;;;;;;;;;;;;;
2021/11/17 09:56:12;;;;;;;19.40;8.70;;;;;;;5.84;89.98;101195.89;102495;1318;73018;-77
2021/11/17 09:58:55;;;;;;;17.40;8.00;;;;;;;5.85;89.97;101195.09;102356;1319;61289;-78
2021/11/17 10:01:50;;;;;;;13.00;7.40;;;;;;;5.83;90.13;101194.17;102760;1322;61361;-78
2021/11/17 10:04:51;;;;;;;13.30;6.40;;;;;;;5.81;89.89;101197.19;102520;1318;74760;-80
2021/11/17 10:14:06;;;;;;;16.20;8.30;;;;;;;5.84;90.43;101183.41;102154;1324;61423;-79
2021/11/17 10:16:51;;;;;;;12.40;6.60;;;;;;;5.84;90.62;101178.65;102492;1318;61361;-81
2021/11/17 10:19:45;;;;;;;14.10;6.90;;;;;;;5.84;90.42;101173.61;102572;1318;74886;-78
2021/11/17 10:22:50;;;;;;;;;;;;;;;;;;;;;
2021/11/17 10:25:53;;;;;;;15.00;8.10;;;;;;;5.82;90.48;101171.14;102207;1318;72996;-78
2021/11/17 10:29:31;;;;;;;15.50;8.20;;;;;;;5.84;90.23;101175.48;102375;1320;63322;-78
2021/11/17 10:32:25;;;;;;;17.20;7.10;;;;;;;5.81;90.40;101173.10;102157;1319;61318;-79
2021/11/17 10:34:59;;;;;;;;;;;;;;;5.79;90.96;101170.86;102601;1319;76255;-78
2021/11/17 10:38:00;;;;;;;24.40;12.20;;;;;;;5.77;91.15;101170.17;102633;1318;70206;-76
2021/11/17 10:40:54;;;;;;;12.70;7.20;;;;;;;5.79;91.10;101159.82;102213;1322;74021;-77
2021/11/17 10:44:02;;;;;;;15.20;7.40;;;;;;;5.82;90.92;101155.37;102676;1316;61729;-78
2021/11/17 10:47:05;;;;;;;11.00;5.40;;;;;;;5.85;90.90;101151.70;102460;1320;61284;-78
2021/11/17 10:49:54;;;;;;;14.10;7.60;;;;;;;5.91;90.70;101150.64;102879;1318;74919;-79
2021/11/17 10:53:00;;;;;;;9.60;5.10;;;;;;;5.99;90.63;101148.95;102526;1318;71602;-78
2021/11/17 10:55:36;;;;;;;14.70;7.50;;;;;;;6.08;90.75;101149.06;102347;1318;73093;-77
2021/11/17 10:58:28;;;;;;;13.10;6.50;;;;;;;6.15;90.27;101149.19;102479;1318;62241;-78
2021/11/17 11:01:44;;;;;;;11.40;6.40;;;;;;;6.17;89.46;101150.58;102299;1318;61267;-81
2021/11/17 11:04:42;;;;;;;;;;;;;;;;;;;;;
2021/11/17 11:07:36;;;;;;;34.60;15.70;;;;;;;6.19;89.79;101148.46;102433;1319;72454;-77
2021/11/17 11:10:50;;;;;;;15.40;8.20;;;;;;;6.21;89.81;101147.02;102275;1320;74271;-77
2021/11/17 11:13:51;;;;;;;;;;;;;;;;;;;;;
2021/11/17 11:16:52;;;;;;;14.40;7.90;;;;;;;6.16;89.70;101143.48;102229;1318;61876;-77
2021/11/17 11:20:24;;;;;;;14.40;6.90;;;;;;;6.18;89.92;101145.04;102408;1322;75167;-79
2021/11/17 11:24:02;;;;;;;9.90;5.50;;;;;;;6.15;91.68;101145.80;102427;1323;71554;-77
2021/11/17 11:27:29;;;;;;;;;;;;;;;;;;;;;
2021/11/17 11:31:07;;;;;;;18.00;9.50;;;;;;;5.96;94.67;101135.88;102455;1319;62116;-80
2021/11/17 11:33:39;;;;;;;;;;;;;;;5.87;95.43;101141.23;102284;1320;61266;-79
2021/11/17 11:36:32;;;;;;;10.80;5.60;;;;;;;5.82;95.91;101137.10;102644;1318;75970;-81
2021/11/17 11:39:20;;;;;;;14.70;7.70;;;;;;;5.79;96.28;101145.39;102960;1318;71113;-79
2021/11/17 11:42:43;;;;;;;;;;;;;;;;;;;;;
2021/11/17 11:46:11;;;;;;;16.30;7.80;;;;;;;5.74;97.70;101129.67;103098;1317;63115;-79
2021/11/17 11:49:22;;;;;;;;;;;;;;;5.72;98.16;101136.63;102811;1320;61178;-80
2021/11/17 11:52:49;;;;;;;18.50;8.00;;;;;;;5.70;98.75;101147.41;102446;1315;75028;-77
2021/11/17 11:55:24;;;;;;;14.80;7.30;;;;;;;5.66;99.04;101148.24;102476;1318;71284;-79
2021/11/17 11:58:25;;;;;;;15.20;6.30;;;;;;;5.65;99.08;101149.95;102686;1318;73104;-77
2021/11/17 12:01:23;;;;;;;16.70;7.70;;;;;;;5.64;99.26;101146.66;102064;1319;63571;-79
2021/11/17 12:04:03;;;;;;;13.30;6.90;;;;;;;5.65;99.24;101153.45;102249;1318;62736;-78
2021/11/17 12:07:08;;;;;;;14.80;6.20;;;;;;;5.65;99.20;101153.26;102346;1318;76203;-77
2021/11/17 12:10:18;;;;;;;14.80;7.30;;;;;;;5.69;98.89;101149.45;102210;1318;71467;-76
2021/11/17 12:12:54;;;;;;;13.10;6.90;;;;;;;5.73;99.04;101150.82;102316;1323;74209;-76
2021/11/17 12:15:56;;;;;;;14.20;7.20;;;;;;;5.76;98.83;101147.77;102222;1318;62073;-77
2021/11/17 12:19:05;;;;;;;14.60;6.20;;;;;;;5.80;98.89;101152.31;102362;1318;61263;-77
2021/11/17 12:22:31;;;;;;;;;;;;;;;;;;;;;
2021/11/17 12:26:10;;;;;;;;;;;;;;;;;;;;;
2021/11/17 12:28:31;;;;;;;15.40;7.90;;;;;;;5.94;98.70;101140.63;103492;1307;71869;-79
2021/11/17 12:31:27;;;;;;;16.80;7.60;;;;;;;5.98;99.00;101139.57;102573;1316;62224;-77
2021/11/17 12:35:20;;;;;;;17.70;8.30;;;;;;;6.04;99.01;101143.65;102697;1316;61380;-77
2021/11/17 12:38:40;;;;;;;17.40;7.40;;;;;;;6.04;98.87;101156.23;102269;1316;76547;-78
2021/11/17 12:42:02;;;;;;;14.00;6.90;;;;;;;6.01;99.12;101156.16;102838;1317;72568;-79
2021/11/17 12:44:35;;;;;;;14.40;6.20;;;;;;;6.00;99.46;101151.70;102980;1316;72983;-78
2021/11/17 12:47:41;;;;;;;13.30;6.70;;;;;;;6.01;99.79;101158.41;102768;1315;63488;-79
2021/11/17 12:50:52;;;;;;;20.80;8.00;;;;;;;6.02;99.95;101160.80;102651;1322;62168;-79
2021/11/17 12:53:50;;;;;;;12.50;5.60;;;;;;;6.05;100.00;101163.52;102736;1315;75228;-78
2021/11/17 12:56:49;;;;;;;14.40;6.70;;;;;;;6.06;100.00;101167.27;102581;1316;71404;-79
2021/11/17 13:00:10;;;;;;;;;;;;;;;;;;;;;
2021/11/17 13:03:14;;;;;;;20.20;8.60;;;;;;;6.09;100.00;101172.27;102916;1307;62292;-79
2021/11/17 13:06:47;;;;;;;15.70;7.70;;;;;;;6.10;100.00;101174.99;102560;1315;61508;-77
2021/11/17 13:09:57;;;;;;;;;;;;;;;;;;;;;
2021/11/17 13:12:54;;;;;;;13.70;7.50;;;;;;;6.12;100.00;101185.37;102496;1318;72682;-78
2021/11/17 13:16:19;;;;;;;;;;;;;;;;;;;;;
2021/11/17 13:18:50;;;;;;;;;;;;;;;6.12;100.00;101186.26;102528;1318;62263;-78
2021/11/17 13:22:00;;;;;;;16.00;7.70;;;;;;;6.12;100.00;101189.98;102667;1315;61414;-79
2021/11/17 13:25:21;;;;;;;;;;;;;;;;;;;;;
2021/11/17 13:28:58;;;;;;;15.30;8.30;;;;;;;6.13;100.00;101183.52;102613;1321;71805;-78
2021/11/17 13:31:56;;;;;;;17.80;8.70;;;;;;;6.16;100.00;101188.09;102197;1321;72018;-78
2021/11/17 13:34:52;;;;;;;22.00;8.80;;;;;;;6.18;100.00;101189.15;102554;1321;62364;-79
2021/11/17 13:38:04;;;;;;;;;;;;;;;;;;;;;
2021/11/17 13:40:33;;;;;;;15.90;6.90;;;;;;;6.24;100.00;101182.40;102319;1321;73804;-78
2021/11/17 13:43:51;;;;;;;17.40;8.70;;;;;;;6.28;100.00;101178.20;102257;1321;71536;-78
2021/11/17 13:46:40;;;;;;;17.60;9.40;;;;;;;6.36;100.00;101170.61;102231;1321;74112;-75
2021/11/17 13:52:36;;;;;;;;;;;;;;;;;;;;;
2021/11/17 13:55:26;;;;;;;18.90;9.00;;;;;;;6.60;100.00;101166.82;102429;1321;74943;-78
2021/11/17 13:58:55;;;;;;;15.40;8.50;;;;;;;6.67;100.00;101153.52;102204;1322;71415;-78
2021/11/17 14:01:56;;;;;;;;;;;;;;;;;;;;;
2021/11/17 14:04:45;;;;;;;16.20;7.40;;;;;;;6.79;100.00;101136.98;102157;1321;62290;-76
2021/11/17 14:08:16;;;;;;;11.10;6.60;;;;;;;6.83;99.96;101120.59;102049;1321;61592;-78
2021/11/17 14:11:43;;;;;;;11.50;6.10;;;;;;;6.82;99.78;101137.74;102165;1321;75983;-77
2021/11/17 14:14:52;;;;;;;33.00;17.70;;;;;;;6.87;99.54;101162.05;102253;1321;71524;-78
2021/11/17 14:18:20;;;;;;;16.60;8.60;;;;;;;6.91;99.35;101165.36;101983;1319;73213;-78
2021/11/17 14:20:56;;;;;;;35.30;14.30;;;;;;;6.97;98.54;101173.48;102298;1313;62356;-78
2021/11/17 14:24:16;;;;;;;;;;;;;;;;;;;;;
2021/11/17 14:27:27;;;;;;;120.40;31.30;;;;;;;7.08;97.83;101169.79;102215;1318;76250;-78
2021/11/17 14:30:47;;;;;;;;;;;;;;;;;;;;;
2021/11/17 14:34:38;;;;;;;59.50;20.30;;;;;;;7.17;96.76;101187.64;102378;1318;72632;-79
2021/11/17 14:37:11;;;;;;;97.90;33.50;;;;;;;7.08;96.71;101191.84;102529;1318;64055;-78
2021/11/17 14:40:14;;;;;;;84.40;27.70;;;;;;;7.00;96.95;101195.85;102411;1315;61697;-77
2021/11/17 14:43:02;;;;;;;86.60;23.00;;;;;;;6.89;97.64;101208.83;101940;1324;74980;-78
2021/11/17 14:46:29;;;;;;;52.80;17.60;;;;;;;6.82;98.17;101218.63;102050;1321;71402;-78
2021/11/17 14:49:07;;;;;;;27.80;10.20;;;;;;;6.77;98.64;101210.80;101785;1321;73010;-76
2021/11/17 14:52:00;;;;;;;15.10;7.10;;;;;;;6.74;98.96;101210.55;101942;1324;61994;-78
2021/11/17 14:54:27;;;;;;;13.40;6.80;;;;;;;6.72;99.17;101214.59;101910;1321;61464;-78
2021/11/17 14:57:22;;;;;;;16.60;7.00;;;;;;;6.70;99.67;101211.73;101879;1321;75727;-77
2021/11/17 14:59:54;;;;;;;13.70;6.90;;;;;;;6.69;99.90;101218.73;101863;1322;71426;-77
2021/11/17 15:03:00;;;;;;;12.80;6.60;;;;;;;6.68;100.00;101219.14;101740;1322;72913;-78
2021/11/17 15:05:30;;;;;;;12.80;6.40;;;;;;;6.69;100.00;101221.64;101931;1321;61509;-77
2021/11/17 15:08:17;;;;;;;13.80;6.50;;;;;;;6.71;100.00;101217.23;102330;1314;62063;-77
2021/11/17 15:11:05;;;;;;;14.90;7.60;;;;;;;6.73;99.92;101218.17;102791;1318;74189;-77
2021/11/17 15:13:32;;;;;;;17.30;7.90;;;;;;;6.74;99.84;101217.67;102523;1315;71446;-78
2021/11/17 15:16:20;;;;;;;16.40;7.90;;;;;;;6.74;99.75;101224.76;102571;1316;73254;-78
2021/11/17 15:19:00;;;;;;;16.30;7.90;;;;;;;6.71;99.57;101228.39;102381;1317;62207;-77
2021/11/17 15:21:54;;;;;;;18.00;8.50;;;;;;;6.67;99.42;101233.48;102396;1318;61220;-76
2021/11/17 15:24:39;;;;;;;16.60;9.40;;;;;;;6.62;99.27;101236.94;102426;1316;74982;-77
2021/11/17 15:28:17;;;;;;;15.60;8.30;;;;;;;6.57;99.63;101236.99;102266;1316;71616;-79
2021/11/17 15:31:07;;;;;;;24.00;10.00;;;;;;;6.53;99.66;101244.55;102170;1317;75119;-78
2021/11/17 15:34:18;;;;;;;15.00;7.40;;;;;;;6.50;99.87;101245.13;102508;1318;63279;-78
2021/11/17 15:37:48;;;;;;;18.70;9.20;;;;;;;6.49;99.98;101245.94;102079;1320;61764;-77
2021/11/17 15:40:46;;;;;;;19.30;9.90;;;;;;;6.50;100.00;101244.05;101971;1321;74757;-77
2021/11/17 15:43:56;;;;;;;17.80;9.70;;;;;;;6.52;99.94;101247.59;102101;1321;72191;-78
2021/11/17 15:46:49;;;;;;;13.80;6.40;;;;;;;6.54;100.00;101246.17;102269;1321;74269;-78
2021/11/17 15:50:08;;;;;;;17.60;8.50;;;;;;;6.55;100.00;101246.82;102144;1322;61976;-77
2021/11/17 15:52:46;;;;;;;;;;;;;;;;;;;;;
2021/11/17 15:55:20;;;;;;;17.20;8.80;;;;;;;6.57;100.00;101255.08;102194;1321;76186;-77
2021/11/17 15:58:01;;;;;;;17.20;9.10;;;;;;;6.58;99.76;101265.21;102342;1321;71457;-78
2021/11/17 16:00:40;;;;;;;;;;;;;;;;;;;;;
2021/11/17 16:03:13;;;;;;;19.10;7.10;;;;;;;6.55;99.79;101269.84;102241;1319;62303;-77
2021/11/17 16:06:22;;;;;;;17.80;9.30;;;;;;;6.52;99.78;101269.88;102592;1321;61815;-79
2021/11/17 16:08:53;;;;;;;16.20;8.80;;;;;;;6.51;99.91;101273.18;102355;1315;76148;-78
2021/11/17 16:11:38;;;;;;;18.90;8.10;;;;;;;6.48;99.97;101272.16;102273;1319;71988;-76
2021/11/17 16:14:51;;;;;;;;;;;;;;;;;;;;;
2021/11/17 16:17:35;;;;;;;;;;;;;;;;;;;;;
2021/11/17 16:20:39;;;;;;;;;;;;;;;;;;;;;
2021/11/17 16:26:26;;;;;;;25.40;8.80;;;;;;;6.41;99.89;101288.63;102773;1321;75065;-78
2021/11/17 16:29:18;;;;;;;;;;;;;;;;;;;;;
2021/11/17 16:32:03;;;;;;;18.10;9.20;;;;;;;6.33;99.86;101281.23;102781;1319;62260;-77
2021/11/17 16:34:40;;;;;;;21.60;9.80;;;;;;;6.28;99.95;101284.66;102776;1318;61485;-79
2021/11/17 16:38:01;;;;;;;;;;;;;;;;;;;;;
2021/11/17 16:40:54;;;;;;;;;;;;;;;;;;;;;
2021/11/17 16:43:37;;;;;;;;;;;;;;;;;;;;;
2021/11/17 16:46:46;;;;;;;16.90;8.70;;;;;;;6.26;100.00;101290.08;102876;1319;63020;-79
2021/11/17 16:50:08;;;;;;;;;;;;;;;;;;;;;
2021/11/17 16:52:48;;;;;;;18.60;9.00;;;;;;;6.28;100.00;101297.52;103108;1318;75360;-79
2021/11/17 16:56:30;;;;;;;17.80;8.80;;;;;;;6.28;99.99;101306.23;102696;1319;72897;-80
2021/11/17 16:58:58;;;;;;;17.80;8.30;;;;;;;6.30;100.00;101306.55;102866;1318;72740;-78
2021/11/17 17:01:46;;;;;;;13.60;7.80;;;;;;;6.32;100.00;101307.48;102730;1319;62261;-82
2021/11/17 17:04:31;;;;;;;22.50;9.90;;;;;;;6.35;100.00;101315.20;102814;1318;61316;-80
2021/11/17 17:07:19;;;;;;;22.30;10.20;;;;;;;6.37;100.00;101322.17;102806;1315;73909;-79
2021/11/17 17:10:27;;;;;;;15.30;7.80;;;;;;;6.39;99.98;101325.35;102765;1318;71382;-80
2021/11/17 17:13:26;;;;;;;16.40;8.10;;;;;;;6.41;99.95;101326.91;103148;1317;71931;-80
2021/11/17 17:16:04;;;;;;;20.20;9.20;;;;;;;6.44;100.00;101333.55;103115;1319;63178;-78
2021/11/17 17:19:16;;;;;;;;;;;;;;;;;;;;;
2021/11/17 17:22:14;;;;;;;24.40;9.40;;;;;;;6.43;99.59;101342.88;102570;1318;76598;-79
2021/11/17 17:25:14;;;;;;;;;;;;;;;;;;;;;
2021/11/17 17:28:31;;;;;;;;;;;;;;;;;;;;;
2021/11/17 17:31:24;;;;;;;13.40;6.70;;;;;;;6.39;99.41;101362.08;102821;1318;62034;-78
2021/11/17 17:34:06;;;;;;;16.40;7.60;;;;;;;6.36;99.23;101367.73;103108;1318;61242;-80
2021/11/17 17:36:41;;;;;;;17.70;9.20;;;;;;;6.32;99.36;101372.10;102974;1319;75393;-78
2021/11/17 17:39:08;;;;;;;;;;;;;;;6.31;99.53;101376.58;102679;1318;72517;-79